Time;durP1;ratioP1;P1;durP2;ratioP2;P2;SDS_P1;SDS_P2;PMS_P1;PMS_P2;Temp;Humidity;BMP_temperature;BMP_pressure;BME280_temperature;BME280_humidity;BME280_pressure;Samples;Min_cycle;Max_cycle;Signal;HPM_P1;HPM_P2
2023/02/13 00:01:30;;;;;;;8.82;4.78;;;;;;;-8.43;60.93;99948.47;4805708;29;20086;-90
2023/02/13 00:03:56;;;;;;;10.10;4.93;;;;;;;-8.37;60.13;99961.47;4822057;29;20050;-91
2023/02/13 00:06:22;;;;;;;10.43;4.22;;;;;;;-8.39;60.00;99945.03;4825307;29;20051;-92
2023/02/13 00:08:48;;;;;;;10.48;4.63;;;;;;;-8.35;60.31;99954.53;4821447;29;20554;-91
2023/02/13 00:11:14;;;;;;;10.73;5.03;;;;;;;-8.36;59.81;99947.63;4786669;29;20063;-91
2023/02/13 00:13:40;;;;;;;7.32;4.47;;;;;;;-8.42;59.86;99956.28;4820911;29;20058;-92
2023/02/13 00:16:06;;;;;;;7.45;4.07;;;;;;;-8.44;59.94;99950.19;4790907;29;20045;-92
2023/02/13 00:18:35;;;;;;;8.45;4.90;;;;;;;-8.42;59.79;99968.38;4819721;29;20074;-92
2023/02/13 00:21:06;;;;;;;8.93;4.80;;;;;;;-8.35;59.73;99964.91;4789186;29;20088;-91
2023/02/13 00:23:34;;;;;;;8.88;4.40;;;;;;;-8.30;59.93;99955.44;4806592;29;20081;-93
2023/02/13 00:26:03;;;;;;;6.40;2.85;;;;;;;-8.30;59.62;99942.47;4822339;29;20121;-91
2023/02/13 00:28:29;;;;;;;9.70;4.55;;;;;;;-8.33;59.64;99945.03;4775367;29;20074;-90
2023/02/13 00:31:06;;;;;;;8.10;4.57;;;;;;;-8.33;59.75;99943.31;4804437;29;20076;-91
2023/02/13 00:33:32;;;;;;;8.00;4.22;;;;;;;-8.27;59.37;99932.13;4779578;29;20070;-91
2023/02/13 00:36:03;;;;;;;9.10;5.13;;;;;;;-8.21;59.35;99937.31;4792955;29;20050;-92
2023/02/13 00:38:30;;;;;;;9.15;4.45;;;;;;;-8.22;59.51;99938.19;4806782;29;20520;-90
2023/02/13 00:40:55;;;;;;;12.57;5.38;;;;;;;-8.15;59.63;99941.69;4808459;29;20042;-92
2023/02/13 00:43:21;;;;;;;9.23;4.75;;;;;;;-8.13;59.18;99943.41;4805986;29;20061;-92
2023/02/13 00:45:47;;;;;;;8.90;4.70;;;;;;;-8.14;59.47;99953.78;4802234;29;20058;-93
2023/02/13 00:48:13;;;;;;;8.93;4.68;;;;;;;-8.16;60.03;99940.81;4805058;29;20533;-93
2023/02/13 00:50:38;;;;;;;10.27;4.95;;;;;;;-8.16;59.72;99951.19;4794954;29;20070;-91
2023/02/13 00:53:04;;;;;;;12.25;4.85;;;;;;;-8.22;59.80;99940.78;4809759;29;20074;-94
2023/02/13 00:55:30;;;;;;;9.68;4.97;;;;;;;-8.21;59.68;99926.94;4809509;29;20074;-90
2023/02/13 00:57:56;;;;;;;8.73;4.70;;;;;;;-8.15;59.96;99937.38;4793403;29;20050;-90
2023/02/13 01:00:21;;;;;;;7.72;4.22;;;;;;;-8.08;60.07;99946.06;4791435;29;20047;-91
2023/02/13 01:02:47;;;;;;;10.32;5.18;;;;;;;-8.07;59.78;99945.19;4787809;29;20126;-92
2023/02/13 01:05:13;;;;;;;8.63;5.30;;;;;;;-8.08;59.83;99946.06;4818247;29;20043;-91
2023/02/13 01:07:39;;;;;;;10.30;4.75;;;;;;;-8.04;60.14;99944.34;4772800;29;20050;-92
2023/02/13 01:10:06;;;;;;;10.27;5.70;;;;;;;-8.21;59.47;99952.88;4790822;29;20100;-92
2023/02/13 01:12:31;;;;;;;10.30;4.70;;;;;;;-8.30;59.88;99939.88;4786022;29;20079;-90
2023/02/13 01:14:57;;;;;;;12.95;4.40;;;;;;;-8.47;60.08;99938.94;4799655;29;20062;-91
2023/02/13 01:17:26;;;;;;;9.93;5.18;;;;;;;-8.52;60.40;99938.91;4784424;29;20076;-91
2023/02/13 01:19:54;;;;;;;7.28;4.35;;;;;;;-8.51;60.76;99932.88;4801337;29;20047;-92
2023/02/13 01:22:21;;;;;;;7.93;4.28;;;;;;;-8.57;61.05;99935.44;4786139;29;20053;-93
2023/02/13 01:24:48;;;;;;;9.27;5.22;;;;;;;-8.59;60.95;99935.41;4785712;29;20053;-91
2023/02/13 01:27:13;;;;;;;9.90;4.80;;;;;;;-8.53;61.13;99944.09;4798868;29;20085;-90
2023/02/13 01:29:39;;;;;;;7.43;4.68;;;;;;;-8.52;61.03;99935.47;4785662;29;20035;-91
2023/02/13 01:32:08;;;;;;;8.93;4.82;;;;;;;-8.48;60.85;99942.41;4800571;29;20110;-92
2023/02/13 01:34:33;;;;;;;12.07;5.38;;;;;;;-8.52;61.11;99948.41;4801580;29;20137;-91
2023/02/13 01:36:59;;;;;;;8.77;4.75;;;;;;;-8.52;61.00;99940.66;4787942;29;20070;-90
2023/02/13 01:39:25;;;;;;;8.82;5.03;;;;;;;-8.53;61.32;99939.78;4799369;29;20050;-87
2023/02/13 01:41:51;;;;;;;8.57;5.32;;;;;;;-8.51;61.62;99947.56;4793127;29;20046;-89
2023/02/13 01:44:50;;;;;;;10.30;5.38;;;;;;;-8.40;61.49;99932.94;4783342;29;20052;-90
2023/02/13 01:47:27;;;;;;;8.85;5.30;;;;;;;-8.39;61.56;99939.84;4784321;29;20092;-88
2023/02/13 01:50:27;;;;;;;10.18;5.00;;;;;;;-8.35;61.37;99949.34;4813448;29;20054;-89
2023/02/13 01:53:18;;;;;;;9.68;4.88;;;;;;;-8.45;61.72;99945.00;4784265;29;20050;-90
2023/02/13 01:55:59;;;;;;;10.95;4.55;;;;;;;-8.43;61.90;99957.09;4790454;29;20059;-89
2023/02/13 01:58:28;;;;;;;8.88;4.55;;;;;;;-8.35;61.80;99949.34;4800791;29;20055;-90
2023/02/13 02:00:55;;;;;;;7.40;3.53;;;;;;;-8.37;61.56;99943.31;4783918;29;20046;-87
2023/02/13 02:03:30;;;;;;;8.30;4.68;;;;;;;-8.44;61.95;99944.16;4796661;29;20121;-89
2023/02/13 02:06:03;;;;;;;8.07;4.40;;;;;;;-8.38;62.06;99944.19;4781118;29;20050;-90
2023/02/13 02:08:30;;;;;;;9.02;5.20;;;;;;;-8.37;61.91;99941.56;4790751;29;20103;-88
2023/02/13 02:11:03;;;;;;;9.32;4.57;;;;;;;-8.45;61.86;99947.59;4784610;29;20411;-90
2023/02/13 02:13:29;;;;;;;11.07;5.00;;;;;;;-8.44;61.78;99947.59;4781090;29;20042;-90
2023/02/13 02:16:01;;;;;;;9.50;5.05;;;;;;;-8.49;62.21;99953.63;4795981;29;20513;-92
2023/02/13 02:18:28;;;;;;;9.35;4.78;;;;;;;-8.65;62.62;99950.94;4796817;29;20055;-92
2023/02/13 02:21:08;;;;;;;8.25;4.70;;;;;;;-8.63;62.96;99949.22;4782029;29;20563;-89
2023/02/13 02:24:24;;;;;;;9.82;5.00;;;;;;;-8.69;63.26;99943.97;4784421;29;20054;-90
2023/02/13 02:27:12;;;;;;;8.30;4.82;;;;;;;-8.47;63.31;99937.22;4797364;29;20118;-90
2023/02/13 02:29:41;;;;;;;8.88;4.72;;;;;;;-8.38;63.15;99944.19;4785458;29;20070;-90
2023/02/13 02:32:31;;;;;;;8.63;5.10;;;;;;;-8.32;63.06;99945.03;4799377;29;20050;-90
2023/02/13 02:35:21;;;;;;;9.35;5.30;;;;;;;-8.24;63.27;99946.81;4803622;29;20080;-90
2023/02/13 02:37:53;;;;;;;7.15;4.13;;;;;;;-8.13;62.73;99945.13;4797495;29;20054;-90
2023/02/13 02:40:32;;;;;;;9.55;4.93;;;;;;;-8.28;62.99;99925.19;4800534;29;20047;-91
2023/02/13 02:43:10;;;;;;;8.25;4.70;;;;;;;-8.25;63.02;99940.75;4784217;29;20059;-90
2023/02/13 02:45:57;;;;;;;10.02;5.28;;;;;;;-8.17;63.31;99943.41;4785303;29;20059;-92
2023/02/13 02:51:28;;;;;;;12.95;5.05;;;;;;;-7.96;62.84;99947.84;4799453;29;20051;-87
2023/02/13 02:54:01;;;;;;;8.02;4.38;;;;;;;-8.12;62.82;99937.38;4782889;29;20059;-88
2023/02/13 02:56:43;;;;;;;9.05;4.82;;;;;;;-8.00;62.75;99940.91;4780024;29;20096;-88
2023/02/13 03:07:38;;;;;;;12.50;5.32;;;;;;;-8.11;62.86;99928.75;4800218;29;20058;-90
2023/02/13 03:13:20;;;;;;;13.38;5.85;;;;;;;-8.21;62.97;99916.56;4818186;29;20054;-92
2023/02/13 03:24:58;;;;;;;8.45;4.38;;;;;;;-8.27;63.15;99910.47;4802716;29;20054;-91
2023/02/13 03:30:51;;;;;;;10.70;5.22;;;;;;;-8.48;64.03;99911.28;4798891;29;20054;-89
2023/02/13 03:33:54;;;;;;;9.50;4.97;;;;;;;-8.42;63.86;99916.53;4766820;29;20055;-80
2023/02/13 03:39:22;;;;;;;9.65;5.53;;;;;;;-8.47;63.59;99907.81;4793658;29;20047;-82
2023/02/13 03:41:55;;;;;;;11.68;5.05;;;;;;;-8.38;64.10;99923.47;4794605;29;20515;-89
2023/02/13 03:44:30;;;;;;;10.20;5.25;;;;;;;-8.38;63.69;99918.28;4780397;29;20057;-90
2023/02/13 03:46:59;;;;;;;11.15;5.35;;;;;;;-8.29;63.81;99917.41;4797227;29;20062;-90
2023/02/13 03:50:05;;;;;;;6.82;4.47;;;;;;;-8.24;63.78;99906.19;4796165;29;20050;-88
2023/02/13 03:52:38;;;;;;;8.55;4.32;;;;;;;-8.33;63.65;99880.22;4814416;29;20050;-89
2023/02/13 04:00:55;;;;;;;9.23;4.57;;;;;;;-8.63;63.99;99897.38;4795637;29;20058;-82
2023/02/13 04:03:27;;;;;;;9.55;4.35;;;;;;;-8.70;64.40;99910.28;4796167;29;20054;-93
2023/02/13 04:06:00;;;;;;;7.22;3.92;;;;;;;-8.65;64.66;99901.69;4780294;29;20095;-81
2023/02/13 04:08:26;;;;;;;9.73;4.68;;;;;;;-8.63;64.50;99918.09;4793318;29;20073;-85
2023/02/13 04:10:59;;;;;;;13.35;5.78;;;;;;;-8.76;65.23;99903.34;4761923;29;20563;-82
2023/02/13 04:13:33;;;;;;;8.45;5.18;;;;;;;-8.58;65.01;99908.63;4791044;29;20050;-82
2023/02/13 04:16:09;;;;;;;8.82;5.30;;;;;;;-8.51;65.20;99911.25;4759396;30;20058;-85
2023/02/13 04:18:37;;;;;;;7.35;4.47;;;;;;;-8.15;66.79;99911.44;4759646;30;20504;-81
2023/02/13 04:21:05;;;;;;;9.77;4.93;;;;;;;-8.13;65.43;99904.50;4759716;30;20134;-88
2023/02/13 04:23:31;;;;;;;11.75;4.80;;;;;;;-8.17;64.71;99913.13;4774521;30;20145;-89
2023/02/13 04:26:00;;;;;;;8.73;5.38;;;;;;;-8.15;64.83;99905.38;4774618;30;20089;-89
2023/02/13 04:28:26;;;;;;;11.13;5.43;;;;;;;-8.23;64.68;99910.53;4790374;30;20382;-85
2023/02/13 04:30:52;;;;;;;10.73;4.68;;;;;;;-8.44;65.50;99908.72;4759350;30;20097;-84
2023/02/13 04:33:18;;;;;;;7.03;4.10;;;;;;;-8.41;65.85;99923.44;4775581;30;20055;-89
2023/02/13 04:35:43;;;;;;;23.30;7.45;;;;;;;-8.33;66.03;99924.31;4774482;30;20047;-86
2023/02/13 04:38:09;;;;;;;10.13;6.05;;;;;;;-8.28;66.07;99932.09;4790345;30;20054;-88
2023/02/13 04:40:35;;;;;;;12.52;5.80;;;;;;;-8.09;65.85;99937.38;4801033;30;20082;-88
2023/02/13 04:43:01;;;;;;;10.30;5.38;;;;;;;-7.98;65.28;99944.34;4765457;29;20085;-87
2023/02/13 04:45:27;;;;;;;11.10;5.95;;;;;;;-7.85;65.19;99940.97;4755114;29;20047;-86
2023/02/13 04:47:54;;;;;;;10.15;3.97;;;;;;;-7.77;64.96;99954.81;4809265;29;20050;-87
2023/02/13 04:50:21;;;;;;;14.15;6.32;;;;;;;-7.66;65.12;99950.53;4792888;29;20059;-87
2023/02/13 04:52:49;;;;;;;20.75;6.35;;;;;;;-7.57;65.07;99947.94;4791510;29;20444;-88
2023/02/13 04:55:15;;;;;;;11.50;4.03;;;;;;;-7.69;65.15;99950.53;4776562;29;20592;-82
2023/02/13 04:57:41;;;;;;;18.88;5.97;;;;;;;-7.68;65.77;99954.84;4791782;29;20097;-81
2023/02/13 05:00:07;;;;;;;11.00;5.75;;;;;;;-7.58;67.00;99946.22;4791359;29;20062;-79
2023/02/13 05:02:33;;;;;;;13.77;6.30;;;;;;;-7.42;65.87;99951.47;4791158;29;20043;-82
2023/02/13 05:04:59;;;;;;;17.05;6.80;;;;;;;-7.44;65.88;99953.19;4760553;29;20442;-81
2023/02/13 05:07:24;;;;;;;24.13;7.22;;;;;;;-7.31;65.69;99944.56;4791854;29;20054;-83
2023/02/13 05:09:50;;;;;;;11.30;6.18;;;;;;;-7.19;65.48;99954.94;4761613;29;20042;-82
2023/02/13 05:12:16;;;;;;;13.43;5.82;;;;;;;-7.20;65.46;99953.22;4761615;29;20046;-85
2023/02/13 05:14:42;;;;;;;19.05;6.22;;;;;;;-7.17;65.74;99937.66;4775097;29;20511;-83
2023/02/13 05:17:11;;;;;;;15.82;6.93;;;;;;;-7.00;65.33;99939.38;4776172;29;20093;-85
2023/02/13 05:19:37;;;;;;;19.42;6.75;;;;;;;-6.80;65.75;99932.47;4805843;29;20142;-83
2023/02/13 05:24:47;;;;;;;17.63;7.70;;;;;;;-6.46;64.67;99920.28;4805430;29;20495;-82
2023/02/13 05:27:12;;;;;;;16.83;7.38;;;;;;;-6.33;64.45;99922.84;4804917;29;20043;-80
2023/02/13 05:29:38;;;;;;;12.45;6.60;;;;;;;-6.29;63.73;99925.44;4766478;29;20039;-81
2023/02/13 05:32:04;;;;;;;11.55;5.72;;;;;;;-6.09;63.67;99922.81;4805081;29;20047;-84
2023/02/13 05:34:30;;;;;;;11.20;5.22;;;;;;;-6.04;62.82;99918.44;4765919;29;20172;-83
2023/02/13 05:36:55;;;;;;;12.35;6.25;;;;;;;-6.28;62.82;99906.38;4771091;29;20046;-83
2023/02/13 05:39:21;;;;;;;18.88;7.15;;;;;;;-6.19;62.72;99906.34;4805209;29;20038;-83
2023/02/13 05:41:47;;;;;;;10.68;5.28;;;;;;;-5.97;62.72;99906.25;4769319;29;20047;-82
2023/02/13 05:44:14;;;;;;;12.52;6.32;;;;;;;-6.09;62.68;99903.69;4766303;29;20046;-83
2023/02/13 05:46:41;;;;;;;12.38;6.50;;;;;;;-6.06;62.92;99903.69;4751185;29;20142;-83
2023/02/13 05:49:09;;;;;;;11.15;6.55;;;;;;;-5.77;62.53;99899.19;4787655;29;20045;-84
2023/02/13 05:51:35;;;;;;;9.95;5.22;;;;;;;-5.62;61.77;99904.31;4805855;29;20051;-81
2023/02/13 05:54:01;;;;;;;9.20;5.47;;;;;;;-5.64;61.83;99913.88;4788806;29;20054;-83
2023/02/13 05:56:27;;;;;;;18.80;7.18;;;;;;;-5.64;61.71;99903.47;4789800;29;20050;-83
2023/02/13 05:58:54;;;;;;;13.73;6.30;;;;;;;-5.44;61.35;99907.69;4805528;29;20095;-84
2023/02/13 06:01:21;;;;;;;11.23;5.38;;;;;;;-5.22;60.96;99916.22;4775007;29;20542;-84
2023/02/13 06:03:47;;;;;;;10.95;5.88;;;;;;;-5.02;60.53;99910.88;4805415;29;20046;-84
2023/02/13 06:06:13;;;;;;;13.75;6.53;;;;;;;-4.86;60.08;99911.59;4806033;29;20400;-84
2023/02/13 06:08:38;;;;;;;12.15;6.05;;;;;;;-4.90;59.73;99905.53;4776565;29;20134;-83
2023/02/13 06:11:05;;;;;;;15.45;7.28;;;;;;;-4.84;58.97;99905.50;4790530;29;20550;-83
2023/02/13 06:13:30;;;;;;;12.50;6.57;;;;;;;-4.71;58.48;99912.31;4777990;29;20047;-83
2023/02/13 06:15:56;;;;;;;25.95;7.90;;;;;;;-4.75;58.92;99909.75;4790930;29;20043;-85
2023/02/13 06:18:22;;;;;;;17.02;7.85;;;;;;;-4.51;59.36;99916.50;4789768;29;20142;-84
2023/02/13 06:20:48;;;;;;;16.83;7.35;;;;;;;-4.46;59.00;99896.44;4772952;29;20080;-88
2023/02/13 06:23:14;;;;;;;26.67;11.23;;;;;;;-4.26;58.75;99894.47;4790263;29;20042;-87
2023/02/13 06:25:40;;;;;;;18.55;9.95;;;;;;;-4.08;57.95;99903.00;4805631;29;20046;-84
2023/02/13 06:28:06;;;;;;;24.60;11.13;;;;;;;-3.99;57.35;99908.09;4774572;29;20525;-87
2023/02/13 06:30:33;;;;;;;24.38;11.88;;;;;;;-3.98;57.39;99909.84;4792590;29;20054;-86
2023/02/13 06:32:59;;;;;;;21.90;11.55;;;;;;;-3.80;57.82;99903.50;4778494;29;20055;-89
2023/02/13 06:35:25;;;;;;;24.35;10.35;;;;;;;-3.64;56.93;99915.50;4795216;29;20458;-82
2023/02/13 06:37:51;;;;;;;16.40;10.02;;;;;;;-3.40;56.50;99919.50;4774442;29;20046;-84
2023/02/13 06:40:17;;;;;;;26.13;10.73;;;;;;;-3.17;56.14;99916.56;4775139;29;20538;-85
2023/02/13 06:42:44;;;;;;;23.15;9.35;;;;;;;-3.30;55.88;99928.09;4791004;29;20061;-82
2023/02/13 06:45:12;;;;;;;17.88;8.20;;;;;;;-3.40;56.22;99916.91;4790603;29;20057;-84
2023/02/13 06:47:46;;;;;;;14.20;7.70;;;;;;;-3.41;56.61;99915.19;4774662;29;20050;-83
2023/02/13 06:50:14;;;;;;;13.70;7.97;;;;;;;-3.39;56.27;99916.00;4807884;29;20050;-91
2023/02/13 06:52:45;;;;;;;14.00;6.88;;;;;;;-3.30;55.86;99915.91;4798489;29;20061;-85
2023/02/13 06:55:11;;;;;;;12.10;6.45;;;;;;;-3.41;56.02;99915.19;4797496;29;20066;-86
2023/02/13 06:57:38;;;;;;;10.60;6.30;;;;;;;-3.39;56.19;99916.00;4793739;29;20079;-86
2023/02/13 07:00:04;;;;;;;8.88;5.10;;;;;;;-3.39;55.54;99910.78;4760895;29;20078;-83
2023/02/13 07:02:31;;;;;;;14.02;6.30;;;;;;;-3.51;55.55;99916.19;4774016;29;20080;-82
2023/02/13 07:04:57;;;;;;;24.02;6.28;;;;;;;-3.54;55.53;99905.78;4788326;29;20506;-88
2023/02/13 07:07:24;;;;;;;11.27;5.63;;;;;;;-3.80;56.55;99914.84;4760011;29;20053;-84
2023/02/13 07:09:50;;;;;;;11.02;6.50;;;;;;;-3.78;56.40;99913.06;4774661;29;20563;-84
2023/02/13 07:12:15;;;;;;;14.57;6.43;;;;;;;-3.70;56.39;99910.34;4790962;29;20078;-82
2023/02/13 07:14:41;;;;;;;10.10;6.40;;;;;;;-3.87;56.40;99889.69;4806126;29;20466;-85
2023/02/13 07:17:09;;;;;;;14.52;6.35;;;;;;;-3.98;57.16;99892.41;4776429;29;20073;-88
2023/02/13 07:19:41;;;;;;;11.30;6.30;;;;;;;-3.77;57.17;99886.03;4786045;30;20519;-86
2023/02/13 07:22:07;;;;;;;11.63;5.88;;;;;;;-3.87;56.68;99886.19;4770679;30;20158;-87
2023/02/13 07:24:34;;;;;;;10.38;5.30;;;;;;;-3.73;57.23;99885.13;4770695;30;20099;-89
2023/02/13 07:27:00;;;;;;;11.13;5.68;;;;;;;-3.58;56.63;99891.88;4770982;30;20047;-85
2023/02/13 07:29:26;;;;;;;11.88;5.03;;;;;;;-3.65;56.91;99882.41;4786090;30;20524;-88
2023/02/13 07:31:52;;;;;;;14.10;6.20;;;;;;;-3.62;57.05;99881.50;4785650;30;20138;-80
2023/02/13 07:34:18;;;;;;;9.95;5.78;;;;;;;-3.17;56.36;99886.03;4786693;29;20059;-86
2023/02/13 07:36:44;;;;;;;10.55;5.25;;;;;;;-3.11;55.92;99863.31;4770539;30;20444;-86
2023/02/13 07:39:09;;;;;;;13.73;6.40;;;;;;;-2.94;55.72;99871.72;4796278;30;20059;-84
2023/02/13 07:41:35;;;;;;;14.15;6.75;;;;;;;-2.90;55.75;99877.78;4789420;30;20090;-87
2023/02/13 07:44:01;;;;;;;15.73;7.07;;;;;;;-2.84;55.42;99868.06;4788696;30;20055;-88
2023/02/13 07:46:27;;;;;;;13.25;6.32;;;;;;;-2.71;55.19;99863.47;4772078;30;20051;-84
2023/02/13 07:48:53;;;;;;;13.88;7.18;;;;;;;-2.55;55.03;99853.63;4772102;30;20047;-87
2023/02/13 07:51:19;;;;;;;13.32;5.78;;;;;;;-2.35;54.83;99866.31;4776385;29;20535;-86
2023/02/13 07:53:47;;;;;;;10.98;5.47;;;;;;;-2.34;54.41;99855.81;4776136;29;20195;-87
2023/02/13 07:56:13;;;;;;;13.05;5.88;;;;;;;-2.32;55.19;99861.03;4808043;29;20077;-87
2023/02/13 07:58:39;;;;;;;11.02;6.50;;;;;;;-2.30;54.92;99862.72;4777992;29;20512;-87
2023/02/13 08:01:11;;;;;;;12.60;6.35;;;;;;;-2.17;55.04;99863.34;4809901;29;20047;-88
2023/02/13 08:03:37;;;;;;;12.65;5.93;;;;;;;-2.03;54.76;99855.19;4794975;29;20035;-87
2023/02/13 08:06:04;;;;;;;10.65;5.97;;;;;;;-1.88;54.94;99849.66;4793260;29;20118;-86
2023/02/13 08:08:30;;;;;;;11.38;6.45;;;;;;;-1.80;54.38;99850.34;4792676;29;20055;-86
2023/02/13 08:13:46;;;;;;;9.70;6.03;;;;;;;-2.60;54.74;99860.69;4774334;30;20051;-87
2023/02/13 08:16:12;;;;;;;11.82;5.90;;;;;;;-2.67;55.83;99870.41;4774524;30;20492;-88
2023/02/13 08:18:38;;;;;;;12.98;6.63;;;;;;;-2.38;55.88;99866.38;4789666;30;20104;-87
2023/02/13 08:21:04;;;;;;;14.30;6.50;;;;;;;-2.06;55.67;99871.84;4789467;30;20047;-87
2023/02/13 08:23:30;;;;;;;8.55;5.32;;;;;;;-2.01;54.51;99879.63;4775433;30;20142;-87
2023/02/13 08:26:00;;;;;;;10.15;6.00;;;;;;;-1.68;54.96;99869.34;4789132;30;20051;-86
2023/02/13 08:28:28;;;;;;;10.85;6.30;;;;;;;-1.33;54.41;99877.25;4790813;29;20133;-87
2023/02/13 08:30:53;;;;;;;12.50;6.50;;;;;;;-1.15;53.35;99864.63;4788521;30;20051;-85
2023/02/13 08:33:19;;;;;;;13.85;7.05;;;;;;;-0.82;52.93;99863.78;4790176;29;20046;-87
2023/02/13 08:35:45;;;;;;;11.57;5.95;;;;;;;-0.87;52.75;99860.41;4773826;30;20520;-85
2023/02/13 08:38:11;;;;;;;12.98;6.78;;;;;;;-1.11;52.53;99861.03;4790251;29;20092;-86
2023/02/13 08:40:37;;;;;;;14.50;6.53;;;;;;;-1.37;52.79;99849.38;4776565;30;20066;-88
2023/02/13 08:43:04;;;;;;;12.90;6.95;;;;;;;-1.29;52.94;99847.44;4791874;30;20412;-86
2023/02/13 08:45:31;;;;;;;10.13;5.95;;;;;;;-1.19;53.57;99837.59;4774066;30;20100;-88
2023/02/13 08:47:58;;;;;;;12.98;6.55;;;;;;;-1.10;53.41;99833.88;4773945;30;20436;-88
2023/02/13 08:50:26;;;;;;;19.02;5.57;;;;;;;-0.98;52.31;99842.31;4788737;30;20078;-86
2023/02/13 08:52:52;;;;;;;23.63;7.15;;;;;;;-1.59;53.26;99830.66;4788890;30;20112;-87
2023/02/13 08:55:18;;;;;;;13.05;6.95;;;;;;;-1.76;53.99;99838.91;4789263;30;20059;-87
2023/02/13 08:57:44;;;;;;;15.45;6.85;;;;;;;-1.71;54.38;99838.81;4789877;29;20157;-87
2023/02/13 09:00:10;;;;;;;14.13;6.95;;;;;;;-1.26;54.14;99842.13;4788535;30;20445;-88
2023/02/13 09:02:36;;;;;;;17.33;7.13;;;;;;;-1.38;53.37;99839.78;4773621;30;20508;-88
2023/02/13 09:05:02;;;;;;;14.80;8.20;;;;;;;-1.23;53.76;99830.69;4789403;29;20055;-87
2023/02/13 09:07:28;;;;;;;18.27;6.97;;;;;;;-0.91;53.44;99827.25;4773387;30;20055;-87
2023/02/13 09:09:54;;;;;;;13.55;6.88;;;;;;;-0.88;52.42;99836.81;4791092;29;20515;-88
2023/02/13 09:12:20;;;;;;;15.52;8.07;;;;;;;-0.69;52.71;99832.81;4762282;29;20510;-86
2023/02/13 09:14:46;;;;;;;16.10;8.57;;;;;;;-0.54;52.30;99832.41;4790735;29;20469;-88
2023/02/13 09:17:13;;;;;;;20.40;9.65;;;;;;;-0.59;52.37;99825.56;4807155;29;20098;-87
2023/02/13 09:19:39;;;;;;;18.63;9.50;;;;;;;-0.71;52.75;99818.00;4790907;29;20115;-87
2023/02/13 09:22:04;;;;;;;19.63;9.85;;;;;;;-0.47;53.06;99816.50;4791021;29;20054;-88
2023/02/13 09:24:30;;;;;;;22.88;10.25;;;;;;;-0.63;52.88;99816.06;4760882;29;20042;-85
2023/02/13 09:26:56;;;;;;;23.27;10.75;;;;;;;-0.61;52.61;99820.34;4776141;29;20507;-88
2023/02/13 09:29:22;;;;;;;18.85;9.18;;;;;;;-0.90;52.99;99826.38;4776097;29;20535;-87
2023/02/13 09:31:47;;;;;;;26.80;10.52;;;;;;;-1.32;54.06;99820.41;4777086;29;20228;-88
2023/02/13 09:34:13;;;;;;;17.65;8.55;;;;;;;-1.54;55.06;99809.59;4795212;29;20050;-85
2023/02/13 09:36:39;;;;;;;18.33;8.52;;;;;;;-1.50;55.55;99798.13;4777559;29;20047;-87
2023/02/13 09:39:05;;;;;;;21.02;9.70;;;;;;;-1.39;55.00;99809.22;4780136;29;20062;-87
2023/02/13 09:41:35;;;;;;;22.00;10.05;;;;;;;-1.17;55.15;99811.31;4776305;29;20046;-89
2023/02/13 09:44:32;;;;;;;17.17;8.60;;;;;;;-1.01;55.17;99808.28;4775869;29;20061;-87
2023/02/13 09:47:05;;;;;;;17.60;8.45;;;;;;;-1.03;54.67;99806.59;4775720;29;20480;-87
2023/02/13 09:49:34;;;;;;;14.25;7.70;;;;;;;-1.06;54.72;99802.28;4806952;29;20050;-86
2023/02/13 09:52:00;;;;;;;14.25;7.88;;;;;;;-1.03;54.87;99807.44;4790326;29;20526;-87
2023/02/13 09:54:30;;;;;;;15.20;8.30;;;;;;;-0.99;55.05;99805.59;4790350;29;20054;-88
2023/02/13 09:56:59;;;;;;;14.23;7.35;;;;;;;-0.85;54.89;99800.00;4775296;29;20495;-87
2023/02/13 09:59:31;;;;;;;14.70;6.78;;;;;;;-1.24;55.32;99797.50;4760704;29;20047;-86
2023/02/13 10:02:03;;;;;;;15.18;8.07;;;;;;;-1.25;56.00;99796.63;4760643;29;20054;-87
2023/02/13 10:04:31;;;;;;;13.98;7.25;;;;;;;-1.04;55.72;99794.38;4790337;29;20512;-85
2023/02/13 10:07:26;;;;;;;12.82;7.00;;;;;;;-1.11;55.33;99788.41;4791073;29;20118;-87
2023/02/13 10:10:02;;;;;;;17.48;7.93;;;;;;;-1.12;55.69;99788.47;4775606;29;20503;-87
2023/02/13 10:12:53;;;;;;;14.35;7.57;;;;;;;-1.05;55.36;99797.91;4790848;29;20113;-85
2023/02/13 10:15:36;;;;;;;14.77;7.57;;;;;;;-1.11;55.87;99784.94;4792197;29;20059;-87
2023/02/13 10:18:35;;;;;;;16.75;8.48;;;;;;;-1.13;55.92;99778.84;4793031;29;20065;-86
2023/02/13 10:21:02;;;;;;;31.63;9.45;;;;;;;-1.02;56.53;99777.69;4799091;29;20070;-86
2023/02/13 10:24:03;;;;;;;17.55;8.38;;;;;;;-0.86;56.02;99782.56;4775244;29;20094;-85
2023/02/13 10:26:41;;;;;;;18.70;9.70;;;;;;;-0.85;55.69;99773.78;4753621;29;20057;-86
2023/02/13 10:32:15;;;;;;;12.88;7.13;;;;;;;-1.01;56.65;99760.19;4790595;29;20093;-86
2023/02/13 10:34:45;;;;;;;15.50;8.07;;;;;;;-0.91;57.06;99769.53;4789946;29;20075;-84
2023/02/13 10:37:17;;;;;;;16.73;8.05;;;;;;;-0.85;56.81;99763.28;4806650;29;20054;-86
2023/02/13 10:39:49;;;;;;;30.33;7.28;;;;;;;-0.81;56.79;99771.00;4776315;29;20575;-83
2023/02/13 10:42:25;;;;;;;23.75;7.78;;;;;;;-0.60;56.64;99773.94;4784715;29;20039;-84
2023/02/13 10:44:51;;;;;;;13.73;7.50;;;;;;;-0.37;56.74;99774.19;4776779;29;20539;-85
2023/02/13 10:47:35;;;;;;;14.88;7.13;;;;;;;-0.50;56.07;99764.91;4782860;29;20047;-83
2023/02/13 10:50:39;;;;;;;13.65;7.80;;;;;;;-0.82;56.60;99766.66;4770712;29;20058;-87
2023/02/13 10:53:36;;;;;;;19.05;8.23;;;;;;;-0.85;57.48;99753.63;4802237;29;20098;-87
2023/02/13 10:56:24;;;;;;;14.88;7.50;;;;;;;-0.87;57.19;99770.31;4792606;29;20161;-87
2023/02/13 10:59:31;;;;;;;17.48;8.57;;;;;;;-0.93;58.02;99776.59;4775258;29;20503;-84
2023/02/13 11:02:02;;;;;;;19.73;8.20;;;;;;;-1.09;58.05;99770.00;4764323;29;20484;-87
2023/02/13 11:04:28;;;;;;;18.48;9.13;;;;;;;-1.06;58.06;99783.91;4795017;29;20162;-84
2023/02/13 11:06:58;;;;;;;19.05;8.50;;;;;;;-1.30;58.97;99788.03;4760583;29;20138;-84
2023/02/13 11:09:25;;;;;;;20.42;9.15;;;;;;;-1.24;58.86;99773.91;4807796;29;20508;-85
2023/02/13 11:11:51;;;;;;;30.60;9.70;;;;;;;-1.28;58.88;99781.00;4760013;30;20405;-86
2023/02/13 11:14:21;;;;;;;17.20;9.55;;;;;;;-1.49;59.67;99776.25;4776451;30;20082;-87
2023/02/13 11:16:57;;;;;;;21.25;8.95;;;;;;;-1.59;59.94;99778.22;4780878;30;20062;-85
2023/02/13 11:19:43;;;;;;;15.80;8.35;;;;;;;-1.67;59.92;99792.41;4785023;30;20052;-85
2023/02/13 11:22:25;;;;;;;18.65;7.88;;;;;;;-1.81;60.79;99785.72;4777582;30;20064;-89
2023/02/13 11:24:57;;;;;;;15.48;7.97;;;;;;;-1.92;61.40;99790.34;4795827;30;20133;-87
2023/02/13 11:27:44;;;;;;;14.07;7.50;;;;;;;-2.03;61.54;99784.47;4793954;30;20131;-87
2023/02/13 11:30:35;;;;;;;14.10;6.85;;;;;;;-2.10;61.87;99789.00;4790156;30;20097;-86
2023/02/13 11:33:17;;;;;;;13.88;6.80;;;;;;;-2.11;61.84;99786.41;4792966;29;20145;-87
2023/02/13 11:35:45;;;;;;;13.95;6.75;;;;;;;-2.15;61.63;99784.75;4788582;30;20055;-85
2023/02/13 11:38:20;;;;;;;16.10;7.18;;;;;;;-2.31;62.23;99769.34;4793473;30;20133;-85
2023/02/13 11:40:50;;;;;;;13.63;6.45;;;;;;;-2.46;62.30;99769.66;4793110;30;20412;-87
2023/02/13 11:43:28;;;;;;;17.23;6.68;;;;;;;-2.49;62.57;99774.97;4775071;30;20115;-86
2023/02/13 11:46:02;;;;;;;13.60;7.18;;;;;;;-2.53;63.20;99768.94;4789899;30;20130;-88
2023/02/13 11:48:28;;;;;;;14.02;6.97;;;;;;;-2.54;63.27;99771.59;4789528;30;20066;-84
2023/02/13 11:50:56;;;;;;;13.35;6.53;;;;;;;-2.48;63.54;99771.47;4790168;30;20047;-86
2023/02/13 11:53:26;;;;;;;13.52;7.18;;;;;;;-2.45;63.35;99756.53;4789238;30;20058;-85
2023/02/13 11:56:01;;;;;;;14.85;7.30;;;;;;;-2.26;63.71;99749.19;4793363;30;20050;-86
2023/02/13 11:58:29;;;;;;;14.18;7.50;;;;;;;-2.12;63.16;99742.78;4762560;30;20397;-85
2023/02/13 12:01:24;;;;;;;14.63;7.50;;;;;;;-2.20;63.08;99743.81;4789769;30;20147;-85
2023/02/13 12:04:02;;;;;;;13.82;7.57;;;;;;;-2.31;63.42;99743.16;4793603;30;20047;-86
2023/02/13 12:06:28;;;;;;;15.98;7.30;;;;;;;-2.55;63.70;99733.22;4766152;30;20052;-86
2023/02/13 12:08:54;;;;;;;16.92;7.55;;;;;;;-2.53;63.85;99747.13;4764853;30;20396;-87
2023/02/13 12:11:44;;;;;;;14.15;8.05;;;;;;;-2.41;64.19;99752.09;4775067;30;20090;-86
2023/02/13 12:14:18;;;;;;;16.02;8.13;;;;;;;-2.29;63.80;99743.16;4759737;30;20094;-87
2023/02/13 12:16:56;;;;;;;15.32;7.78;;;;;;;-2.30;63.93;99752.75;4775128;30;20104;-89
2023/02/13 12:19:42;;;;;;;19.85;8.73;;;;;;;-2.46;64.47;99744.34;4774570;30;20082;-93
2023/02/13 12:22:23;;;;;;;16.75;8.25;;;;;;;-2.35;65.02;99751.13;4790315;29;20086;-80
2023/02/13 12:25:14;;;;;;;15.00;7.45;;;;;;;-2.29;64.46;99746.63;4791141;30;20055;-89
2023/02/13 12:28:02;;;;;;;13.48;8.02;;;;;;;-2.42;64.64;99739.06;4760047;30;20086;-84